createdAt,value
2023-09-14T00:02:07.231Z,8.10
2023-09-14T00:05:11.142Z,7.90
2023-09-14T00:08:14.256Z,8.00
2023-09-14T00:11:17.073Z,8.35
2023-09-14T00:14:19.801Z,8.55
2023-09-14T00:17:22.560Z,7.97
2023-09-14T00:20:35.614Z,9.10
2023-09-14T00:23:38.575Z,8.47
2023-09-14T00:26:41.308Z,8.73
2023-09-14T00:29:44.175Z,9.05
2023-09-14T00:32:48.756Z,8.45
2023-09-14T00:35:51.748Z,8.93
2023-09-14T00:38:54.461Z,8.90
2023-09-14T00:41:57.241Z,8.85
2023-09-14T00:45:00.011Z,9.15
2023-09-14T00:48:05.907Z,8.98
2023-09-14T00:51:08.984Z,9.38
2023-09-14T00:54:11.802Z,9.30
2023-09-14T00:57:14.698Z,9.05
2023-09-14T01:00:18.166Z,9.02
2023-09-14T01:03:21.072Z,9.52
2023-09-14T01:06:26.186Z,9.82
2023-09-14T01:09:29.092Z,9.27
2023-09-14T01:12:33.771Z,9.77
2023-09-14T01:15:43.435Z,9.68
2023-09-14T01:18:56.634Z,9.15
2023-09-14T01:22:21.524Z,9.50
2023-09-14T01:25:45.130Z,10.30
2023-09-14T01:28:49.106Z,9.88
2023-09-14T01:31:51.864Z,9.90
2023-09-14T01:34:55.407Z,9.43
2023-09-14T01:37:59.487Z,10.25
2023-09-14T01:41:03.630Z,9.93
2023-09-14T01:44:07.318Z,10.15
2023-09-14T01:47:10.293Z,10.00
2023-09-14T01:50:13.816Z,10.70
2023-09-14T01:53:23.710Z,10.07
2023-09-14T01:56:26.545Z,10.07
2023-09-14T01:59:31.318Z,10.82
2023-09-14T02:02:34.667Z,10.30
2023-09-14T02:05:37.433Z,10.80
2023-09-14T02:08:40.324Z,10.60
2023-09-14T02:11:45.134Z,10.67
2023-09-14T02:14:49.430Z,10.50
2023-09-14T02:17:53.823Z,10.93
2023-09-14T02:20:56.690Z,10.15
2023-09-14T02:23:59.503Z,11.25
2023-09-14T02:27:02.265Z,10.93
2023-09-14T02:30:05.765Z,10.63
2023-09-14T02:33:09.172Z,11.95
2023-09-14T02:36:12.392Z,10.70
2023-09-14T02:39:15.121Z,11.95
2023-09-14T02:42:18.006Z,11.50
2023-09-14T02:45:20.829Z,10.80
2023-09-14T02:48:23.583Z,11.43
2023-09-14T02:51:26.392Z,12.07
2023-09-14T02:54:29.142Z,11.65
2023-09-14T02:57:31.902Z,11.23
2023-09-14T03:00:35.346Z,11.98
2023-09-14T03:03:39.850Z,11.35
2023-09-14T03:06:43.112Z,11.93
2023-09-14T03:09:46.066Z,11.75
2023-09-14T03:12:49.977Z,12.17
2023-09-14T03:16:00.191Z,12.70
2023-09-14T03:19:03.156Z,13.63
2023-09-14T03:22:08.335Z,13.65
2023-09-14T03:25:12.521Z,13.30
2023-09-14T03:28:16.917Z,13.03
2023-09-14T03:31:20.902Z,13.52
2023-09-14T03:34:23.964Z,13.98
2023-09-14T03:37:26.938Z,13.50
2023-09-14T03:40:30.163Z,14.48
2023-09-14T03:43:33.169Z,13.87
2023-09-14T03:46:36.160Z,14.50
2023-09-14T03:49:38.961Z,13.60
2023-09-14T03:52:41.797Z,13.43
2023-09-14T03:55:44.584Z,14.40
2023-09-14T03:58:48.653Z,14.03
2023-09-14T04:01:52.140Z,14.40
2023-09-14T04:04:55.083Z,14.05
2023-09-14T04:07:57.932Z,15.10
2023-09-14T04:11:03.840Z,14.10
2023-09-14T04:14:06.656Z,16.00
2023-09-14T04:17:09.608Z,15.77
2023-09-14T04:20:12.418Z,15.65
2023-09-14T04:23:16.928Z,14.60
2023-09-14T04:26:21.034Z,15.23
2023-09-14T04:29:24.086Z,14.37
2023-09-14T04:32:27.009Z,14.18
2023-09-14T04:35:30.018Z,14.75
2023-09-14T04:38:33.962Z,14.73
2023-09-14T04:41:38.404Z,13.98
2023-09-14T04:44:41.291Z,14.10
2023-09-14T04:47:44.284Z,13.93
2023-09-14T04:50:47.432Z,13.75
2023-09-14T04:53:50.532Z,13.68
2023-09-14T04:56:53.505Z,13.35
2023-09-14T04:59:56.352Z,12.93
2023-09-14T05:02:59.328Z,13.02
2023-09-14T05:06:04.018Z,12.75
2023-09-14T05:09:07.194Z,12.45
2023-09-14T05:12:10.002Z,12.90
2023-09-14T05:15:12.732Z,12.03
2023-09-14T05:18:15.619Z,12.50
2023-09-14T05:21:18.723Z,12.68
2023-09-14T05:24:21.639Z,11.13
2023-09-14T05:27:26.417Z,11.23
2023-09-14T05:30:29.324Z,9.50
2023-09-14T05:33:32.421Z,9.52
2023-09-14T05:36:35.338Z,9.30
2023-09-14T05:39:44.071Z,7.82
2023-09-14T05:42:47.921Z,8.50
2023-09-14T05:45:52.406Z,8.20
2023-09-14T05:48:55.727Z,7.97
2023-09-14T05:51:59.741Z,8.00
2023-09-14T05:55:07.381Z,7.28
2023-09-14T05:58:12.045Z,7.00
2023-09-14T06:01:15.956Z,6.80
2023-09-14T06:04:19.447Z,6.25
2023-09-14T06:07:26.890Z,5.70
2023-09-14T06:10:29.948Z,5.63
2023-09-14T06:13:32.987Z,4.45
2023-09-14T06:19:53.475Z,4.20
2023-09-14T06:22:56.317Z,3.97
2023-09-14T06:25:59.218Z,4.40
2023-09-14T06:29:02.181Z,4.07
2023-09-14T06:32:05.301Z,4.20
2023-09-14T06:38:35.028Z,3.75
2023-09-14T06:41:37.891Z,3.47
2023-09-14T06:44:40.711Z,3.20
2023-09-14T06:47:43.783Z,3.03
2023-09-14T06:50:47.918Z,2.78
2023-09-14T06:53:52.742Z,2.97
2023-09-14T06:56:55.587Z,3.30
2023-09-14T07:00:02.088Z,3.13
2023-09-14T07:03:23.730Z,4.00
2023-09-14T07:06:30.213Z,3.80
2023-09-14T07:09:55.066Z,3.00
2023-09-14T07:13:00.832Z,2.80
2023-09-14T07:16:06.701Z,2.90
2023-09-14T07:19:09.933Z,2.50
2023-09-14T07:22:12.711Z,2.22
2023-09-14T07:25:16.058Z,2.60
2023-09-14T07:28:26.835Z,2.08
2023-09-14T07:31:30.301Z,2.22
2023-09-14T07:34:36.505Z,2.80
2023-09-14T07:37:40.137Z,2.65
2023-09-14T07:40:43.530Z,2.30
2023-09-14T07:43:46.656Z,2.53
2023-09-14T07:46:50.017Z,2.50
2023-09-14T07:49:53.184Z,2.40
2023-09-14T07:52:56.096Z,2.53
2023-09-14T07:55:59.184Z,2.53
2023-09-14T07:59:02.141Z,2.55
2023-09-14T08:02:09.317Z,2.70
2023-09-14T08:05:12.201Z,2.60
2023-09-14T08:08:16.276Z,2.70
2023-09-14T08:11:19.393Z,2.17
2023-09-14T08:14:22.555Z,2.67
2023-09-14T08:17:25.742Z,2.45
2023-09-14T08:20:29.207Z,2.43
2023-09-14T08:23:32.526Z,2.70
2023-09-14T08:26:35.999Z,2.60
2023-09-14T08:29:45.253Z,2.50
2023-09-14T08:32:51.295Z,2.90
2023-09-14T08:35:55.627Z,2.67
2023-09-14T08:39:11.080Z,2.80
2023-09-14T08:42:21.704Z,2.97
2023-09-14T08:45:52.364Z,2.67
2023-09-14T08:49:02.444Z,3.33
2023-09-14T08:52:08.581Z,2.97
2023-09-14T08:55:12.953Z,2.90
2023-09-14T08:58:17.449Z,2.80
2023-09-14T09:01:20.445Z,3.42
2023-09-14T09:04:23.618Z,3.28
2023-09-14T09:07:30.034Z,3.03
2023-09-14T09:10:33.309Z,3.20
2023-09-14T09:13:41.773Z,3.15
2023-09-14T09:16:45.147Z,3.13
2023-09-14T09:19:49.878Z,3.45
2023-09-14T09:22:57.403Z,3.17
2023-09-14T09:26:02.922Z,3.42
2023-09-14T09:29:20.631Z,3.13
2023-09-14T09:32:23.791Z,3.20
2023-09-14T09:35:30.175Z,3.10
2023-09-14T09:38:47.180Z,3.50
2023-09-14T09:41:52.872Z,3.45
2023-09-14T09:44:58.856Z,4.35
2023-09-14T09:48:03.206Z,4.38
2023-09-14T09:51:35.876Z,2.75
2023-09-14T09:54:38.870Z,2.57
2023-09-14T09:57:54.646Z,2.50
2023-09-14T10:00:58.751Z,2.80
2023-09-14T10:04:02.409Z,2.55
2023-09-14T10:07:10.274Z,2.85
2023-09-14T10:10:13.469Z,2.70
2023-09-14T10:13:17.907Z,2.78
2023-09-14T10:16:26.966Z,2.67
2023-09-14T10:19:30.888Z,2.35
2023-09-14T10:22:36.119Z,3.33
2023-09-14T10:25:40.377Z,3.13
2023-09-14T10:28:44.702Z,3.67
2023-09-14T10:31:49.676Z,4.90
2023-09-14T10:35:05.547Z,3.83
2023-09-14T10:38:11.006Z,3.45
2023-09-14T10:41:15.435Z,3.30
2023-09-14T10:44:20.994Z,3.38
2023-09-14T10:47:28.516Z,2.80
2023-09-14T10:50:32.935Z,2.42
2023-09-14T10:53:36.441Z,2.90
2023-09-14T10:56:39.859Z,2.90
2023-09-14T10:59:51.704Z,2.63
2023-09-14T11:03:16.716Z,2.92
2023-09-14T11:06:50.370Z,5.53
2023-09-14T11:10:05.610Z,3.10
2023-09-14T11:13:21.184Z,3.30
2023-09-14T11:16:28.693Z,3.00
2023-09-14T11:22:38.573Z,3.20
2023-09-14T11:26:04.751Z,3.20
2023-09-14T11:29:08.494Z,3.80
2023-09-14T11:32:20.618Z,2.50
2023-09-14T11:35:37.539Z,2.90
2023-09-14T11:38:48.296Z,3.10
2023-09-14T11:41:59.274Z,2.80
2023-09-14T11:45:11.446Z,3.00
2023-09-14T11:51:26.596Z,3.15
2023-09-14T11:54:33.663Z,2.75
2023-09-14T11:57:37.190Z,2.83
2023-09-14T12:00:48.551Z,3.20
2023-09-14T12:03:51.862Z,2.75
2023-09-14T12:06:56.706Z,3.22
2023-09-14T12:10:00.469Z,2.95
2023-09-14T12:17:56.248Z,2.50
2023-09-14T12:21:00.801Z,3.03
2023-09-14T12:24:04.411Z,3.28
2023-09-14T12:27:07.802Z,2.90
2023-09-14T12:30:12.523Z,2.97
2023-09-14T12:33:16.464Z,3.03
2023-09-14T12:36:22.642Z,3.28
2023-09-14T12:39:26.513Z,3.15
2023-09-14T12:42:29.425Z,3.10
2023-09-14T12:45:34.866Z,3.17
2023-09-14T12:48:37.933Z,2.70
2023-09-14T12:51:49.393Z,3.00
2023-09-14T12:54:53.186Z,2.70
2023-09-14T12:57:58.149Z,2.83
2023-09-14T13:01:01.035Z,2.80
2023-09-14T13:04:04.956Z,3.10
2023-09-14T13:07:16.542Z,3.00
2023-09-14T13:10:24.662Z,3.28
2023-09-14T13:13:31.641Z,2.50
2023-09-14T13:16:34.933Z,2.97
2023-09-14T13:19:38.877Z,2.87
2023-09-14T13:22:42.312Z,2.70
2023-09-14T13:25:45.244Z,2.60
2023-09-14T13:28:48.415Z,2.80
2023-09-14T13:31:51.896Z,2.60
2023-09-14T13:34:54.790Z,2.60
2023-09-14T13:37:58.682Z,2.38
2023-09-14T13:41:01.634Z,2.78
2023-09-14T13:44:04.741Z,2.17
2023-09-14T13:47:07.645Z,2.38
2023-09-14T13:50:11.120Z,2.00
2023-09-14T13:53:15.689Z,2.45
2023-09-14T13:56:20.215Z,2.20
2023-09-14T13:59:23.874Z,2.60
2023-09-14T14:02:26.917Z,2.50
2023-09-14T14:05:29.688Z,2.57
2023-09-14T14:08:32.761Z,2.28
2023-09-14T14:11:35.537Z,2.30
2023-09-14T14:14:39.426Z,2.38
2023-09-14T14:17:42.286Z,2.60
2023-09-14T14:20:45.390Z,1.90
2023-09-14T14:23:48.181Z,2.10
2023-09-14T14:26:52.618Z,2.10
2023-09-14T14:29:55.469Z,2.05
2023-09-14T14:32:58.513Z,2.00
2023-09-14T14:36:01.410Z,2.00
2023-09-14T14:39:04.958Z,1.90
2023-09-14T14:42:08.024Z,2.50
2023-09-14T14:45:11.204Z,2.60
2023-09-14T14:48:14.160Z,2.53
2023-09-14T14:51:17.222Z,2.00
2023-09-14T14:54:20.251Z,2.00
2023-09-14T14:57:23.633Z,2.15
2023-09-14T15:00:26.491Z,1.70
2023-09-14T15:03:32.133Z,2.05
2023-09-14T15:06:35.176Z,1.97
2023-09-14T15:09:38.734Z,1.52
2023-09-14T15:12:41.656Z,1.65
2023-09-14T15:15:44.459Z,1.38
2023-09-14T15:18:47.415Z,1.70
2023-09-14T15:21:50.372Z,1.20
2023-09-14T15:24:53.245Z,1.30
2023-09-14T15:27:56.402Z,1.30
2023-09-14T15:31:11.084Z,1.40
2023-09-14T15:34:13.846Z,1.27
2023-09-14T15:37:16.655Z,1.17
2023-09-14T15:40:19.678Z,1.10
2023-09-14T15:43:22.807Z,1.30
2023-09-14T15:46:26.267Z,0.98
2023-09-14T15:49:29.135Z,1.10
2023-09-14T15:52:32.631Z,0.80
2023-09-14T15:55:35.411Z,0.85
2023-09-14T15:58:38.160Z,1.45
2023-09-14T16:01:41.435Z,0.88
2023-09-14T16:04:50.760Z,1.00
2023-09-14T16:08:08.385Z,1.20
2023-09-14T16:11:11.326Z,0.60
2023-09-14T16:14:15.961Z,0.90
2023-09-14T16:17:18.765Z,0.70
2023-09-14T16:20:22.693Z,0.82
2023-09-14T16:23:26.403Z,0.97
2023-09-14T16:26:29.850Z,0.80
2023-09-14T16:29:32.700Z,0.95
2023-09-14T16:32:35.776Z,0.80
2023-09-14T16:35:42.466Z,1.00
2023-09-14T16:38:46.324Z,0.87
2023-09-14T16:41:49.389Z,1.00
2023-09-14T16:44:52.158Z,1.15
2023-09-14T16:47:55.573Z,1.00
2023-09-14T16:50:58.330Z,1.33
2023-09-14T16:54:01.303Z,1.37
2023-09-14T16:57:07.055Z,1.58
2023-09-14T17:00:10.469Z,1.50
2023-09-14T17:03:13.563Z,1.15
2023-09-14T17:06:16.368Z,1.58
2023-09-14T17:09:19.157Z,1.60
2023-09-14T17:12:21.989Z,1.70
2023-09-14T17:15:25.062Z,2.00
2023-09-14T17:18:27.964Z,1.83
2023-09-14T17:21:31.298Z,2.08
2023-09-14T17:24:34.225Z,2.03
2023-09-14T17:27:37.057Z,1.77
2023-09-14T17:30:40.715Z,1.83
2023-09-14T17:33:46.257Z,1.92
2023-09-14T17:36:50.342Z,1.60
2023-09-14T17:39:53.296Z,1.63
2023-09-14T17:42:56.227Z,1.42
2023-09-14T17:45:59.259Z,1.90
2023-09-14T17:49:06.431Z,1.75
2023-09-14T17:52:09.964Z,1.83
2023-09-14T17:55:13.013Z,1.60
2023-09-14T17:58:16.023Z,1.65
2023-09-14T18:01:18.839Z,1.60
2023-09-14T18:04:21.762Z,1.83
2023-09-14T18:07:24.725Z,1.98
2023-09-14T18:10:27.638Z,1.97
2023-09-14T18:13:30.654Z,1.58
2023-09-14T18:16:33.485Z,1.90
2023-09-14T18:19:38.031Z,1.73
2023-09-14T18:22:42.809Z,2.17
2023-09-14T18:25:45.693Z,2.67
2023-09-14T18:28:48.791Z,2.20
2023-09-14T18:32:07.769Z,2.47
2023-09-14T18:35:10.946Z,2.50
2023-09-14T18:38:13.768Z,2.40
2023-09-14T18:41:17.997Z,2.20
2023-09-14T18:44:21.389Z,2.35
2023-09-14T18:47:24.315Z,2.30
2023-09-14T18:50:27.351Z,2.63
2023-09-14T18:53:30.478Z,2.60
2023-09-14T18:56:33.251Z,2.13
2023-09-14T18:59:36.353Z,2.00
2023-09-14T19:02:46.109Z,2.65
2023-09-14T19:05:54.374Z,2.03
2023-09-14T19:08:57.620Z,2.63
2023-09-14T19:12:00.416Z,2.23
2023-09-14T19:15:04.372Z,2.58
2023-09-14T19:18:07.537Z,2.90
2023-09-14T19:21:10.525Z,2.75
2023-09-14T19:24:13.318Z,3.70
2023-09-14T19:27:16.285Z,3.00
2023-09-14T19:30:19.148Z,3.85
2023-09-14T19:33:22.202Z,3.80
2023-09-14T19:36:26.362Z,3.38
2023-09-14T19:39:29.444Z,3.10
2023-09-14T19:42:32.511Z,3.17
2023-09-14T19:45:36.593Z,2.95
2023-09-14T19:48:45.007Z,2.70
2023-09-14T19:51:48.559Z,2.83
2023-09-14T19:54:51.620Z,2.47
2023-09-14T19:57:54.498Z,2.50
2023-09-14T20:00:57.407Z,2.70
2023-09-14T20:04:00.485Z,2.60
2023-09-14T20:07:03.682Z,2.65
2023-09-14T20:10:07.732Z,2.55
2023-09-14T20:13:10.761Z,2.93
2023-09-14T20:16:13.762Z,3.00
2023-09-14T20:19:16.697Z,3.08
2023-09-14T20:22:19.558Z,2.97
2023-09-14T20:25:22.396Z,3.00
2023-09-14T20:28:25.324Z,3.30
2023-09-14T20:31:28.088Z,2.95
2023-09-14T20:34:31.092Z,3.30
2023-09-14T20:37:37.672Z,3.22
2023-09-14T20:40:42.631Z,3.80
2023-09-14T20:43:45.336Z,3.17
2023-09-14T20:46:49.065Z,3.10
2023-09-14T20:49:52.041Z,3.53
2023-09-14T20:52:56.695Z,3.15
2023-09-14T20:56:02.013Z,3.50
2023-09-14T20:59:06.252Z,3.30
2023-09-14T21:02:09.691Z,3.22
2023-09-14T21:05:12.547Z,3.72
2023-09-14T21:08:16.400Z,3.60
2023-09-14T21:11:19.188Z,3.50
2023-09-14T21:14:28.276Z,3.40
2023-09-14T21:17:31.051Z,3.70
2023-09-14T21:20:33.883Z,3.42
2023-09-14T21:23:39.036Z,3.28
2023-09-14T21:26:43.043Z,3.63
2023-09-14T21:29:47.300Z,3.63
2023-09-14T21:32:50.089Z,3.60
2023-09-14T21:35:57.518Z,3.55
2023-09-14T21:39:00.847Z,3.58
2023-09-14T21:42:04.292Z,3.92
2023-09-14T21:45:07.846Z,3.50
2023-09-14T21:48:10.735Z,3.65
2023-09-14T21:51:13.528Z,3.80
2023-09-14T21:54:16.218Z,3.80
2023-09-14T21:57:20.153Z,4.30
2023-09-14T22:00:25.839Z,4.23
2023-09-14T22:03:45.038Z,4.53
2023-09-14T22:06:53.148Z,4.05
2023-09-14T22:09:55.970Z,3.40
2023-09-14T22:12:58.870Z,3.80
2023-09-14T22:16:01.738Z,3.60
2023-09-14T22:19:04.578Z,3.10
2023-09-14T22:22:08.531Z,3.47
2023-09-14T22:25:11.540Z,3.70
2023-09-14T22:28:14.760Z,3.10
2023-09-14T22:31:17.721Z,3.37
2023-09-14T22:34:20.679Z,3.70
2023-09-14T22:37:29.392Z,3.75
2023-09-14T22:40:39.370Z,4.18
2023-09-14T22:43:42.720Z,4.00
2023-09-14T22:46:45.495Z,4.40
2023-09-14T22:49:48.303Z,4.10
2023-09-14T22:52:53.124Z,3.80
2023-09-14T22:55:55.868Z,3.97
2023-09-14T22:58:58.668Z,3.80
2023-09-14T23:02:01.577Z,3.60
2023-09-14T23:05:06.501Z,3.10
2023-09-14T23:08:11.140Z,3.45
2023-09-14T23:11:24.921Z,3.13
2023-09-14T23:14:31.498Z,3.17
2023-09-14T23:17:35.131Z,3.10
2023-09-14T23:20:40.472Z,3.10
2023-09-14T23:23:43.863Z,3.63
2023-09-14T23:26:49.726Z,3.42
2023-09-14T23:29:53.317Z,3.50
2023-09-14T23:32:56.834Z,3.40
2023-09-14T23:35:59.640Z,3.35
2023-09-14T23:39:05.876Z,3.75
2023-09-14T23:42:10.852Z,3.58
2023-09-14T23:45:14.691Z,3.88
2023-09-14T23:48:17.398Z,3.60
2023-09-14T23:51:21.895Z,3.47
2023-09-14T23:54:24.599Z,3.45
2023-09-14T23:57:27.448Z,3.50
